Time;durP1;ratioP1;P1;durP2;ratioP2;P2;SDS_P1;SDS_P2;PMS_P1;PMS_P2;Temp;Humidity;BMP_temperature;BMP_pressure;BME280_temperature;BME280_humidity;BME280_pressure;Samples;Min_cycle;Max_cycle;Signal;HPM_P1;HPM_P2
2023/05/17 00:00:01;;;;;;;4.10;2.20;;;;;;;19.42;65.07;99369.19;5072336;28;20052;-61
2023/05/17 00:02:30;;;;;;;3.78;2.40;;;;;;;19.41;65.04;99364.81;5072123;28;20136;-61
2023/05/17 00:04:59;;;;;;;3.97;2.60;;;;;;;19.40;64.94;99365.81;5072153;28;20040;-61
2023/05/17 00:07:28;;;;;;;3.75;2.15;;;;;;;19.40;64.87;99365.81;5072070;28;20052;-61
2023/05/17 00:09:56;;;;;;;3.70;2.30;;;;;;;19.39;64.67;99364.09;5071814;28;20048;-62
2023/05/17 00:12:30;;;;;;;4.18;2.22;;;;;;;19.38;64.65;99367.84;5071708;28;20485;-61
2023/05/17 00:14:58;;;;;;;4.38;2.33;;;;;;;19.38;64.88;99372.41;5072078;28;20049;-61
2023/05/17 00:17:27;;;;;;;4.82;2.40;;;;;;;19.38;65.09;99375.09;5072010;28;20044;-62
2023/05/17 00:19:55;;;;;;;3.90;2.40;;;;;;;19.38;65.05;99380.50;5072047;28;20059;-61
2023/05/17 00:22:27;;;;;;;3.95;2.40;;;;;;;19.36;64.83;99374.44;5071861;28;20050;-61
2023/05/17 00:24:58;;;;;;;3.60;2.33;;;;;;;19.36;64.89;99375.28;5071641;28;20045;-61
2023/05/17 00:27:26;;;;;;;3.60;2.33;;;;;;;19.35;64.90;99370.88;5071940;28;20049;-61
2023/05/17 00:29:57;;;;;;;4.15;2.20;;;;;;;19.35;64.70;99372.75;5071715;28;20044;-61
2023/05/17 00:32:25;;;;;;;4.13;2.58;;;;;;;19.33;65.06;99364.81;5071667;28;20048;-61
2023/05/17 00:34:53;;;;;;;3.75;2.33;;;;;;;19.34;64.86;99355.69;5071881;28;20044;-61
2023/05/17 00:37:21;;;;;;;5.10;2.30;;;;;;;19.34;64.71;99357.53;5071345;28;20044;-61
2023/05/17 00:39:51;;;;;;;4.50;2.50;;;;;;;19.32;65.01;99352.31;5071327;28;20079;-61
2023/05/17 00:42:20;;;;;;;3.10;2.20;;;;;;;19.31;64.81;99350.63;5071236;28;20076;-61
2023/05/17 00:44:48;;;;;;;3.72;2.20;;;;;;;19.31;65.09;99349.78;5071363;28;20049;-61
2023/05/17 00:47:16;;;;;;;5.47;2.40;;;;;;;19.30;65.04;99358.88;5070177;28;20055;-61
2023/05/17 00:49:47;;;;;;;3.38;2.20;;;;;;;19.30;64.76;99358.88;5071326;28;20083;-61
2023/05/17 00:52:15;;;;;;;4.72;2.40;;;;;;;19.29;65.00;99358.03;5071524;28;20055;-61
2023/05/17 00:54:44;;;;;;;4.35;2.38;;;;;;;19.28;64.86;99359.06;5071405;28;20055;-61
2023/05/17 00:57:14;;;;;;;3.42;2.10;;;;;;;19.29;64.84;99359.88;5071140;28;20076;-60
2023/05/17 00:59:44;;;;;;;4.07;2.10;;;;;;;19.28;64.98;99366.31;5071235;28;20133;-61
2023/05/17 01:02:13;;;;;;;4.00;2.53;;;;;;;19.27;65.09;99370.03;5071123;28;20059;-61
2023/05/17 01:04:41;;;;;;;4.35;2.45;;;;;;;19.26;64.88;99366.50;5071384;28;20052;-60
2023/05/17 01:07:10;;;;;;;3.53;2.28;;;;;;;19.26;65.12;99380.00;5071095;28;20068;-60
2023/05/17 01:09:39;;;;;;;3.78;2.22;;;;;;;19.26;64.86;99384.56;5071084;28;20067;-61
2023/05/17 01:12:20;;;;;;;2.97;2.05;;;;;;;19.25;64.73;99378.31;5070957;28;20052;-61
2023/05/17 01:14:57;;;;;;;3.15;2.25;;;;;;;19.24;64.93;99390.16;5070978;28;20059;-61
2023/05/17 01:17:35;;;;;;;4.60;2.50;;;;;;;19.24;64.70;99379.34;5071277;28;20060;-61
2023/05/17 01:20:17;;;;;;;4.25;2.70;;;;;;;19.23;64.67;99377.66;5071230;28;20053;-60
2023/05/17 01:22:53;;;;;;;4.30;2.50;;;;;;;19.23;65.10;99374.09;5071192;28;20391;-61
2023/05/17 01:25:34;;;;;;;3.05;2.20;;;;;;;19.22;65.04;99370.56;5070957;28;20053;-60
2023/05/17 01:28:06;;;;;;;4.25;2.50;;;;;;;19.22;65.08;99367.00;5069594;28;20040;-62
2023/05/17 01:30:35;;;;;;;3.75;2.47;;;;;;;19.21;64.75;99359.91;5071071;28;20055;-61
2023/05/17 01:33:04;;;;;;;3.88;2.53;;;;;;;19.21;65.14;99349.94;5071069;28;20040;-60
2023/05/17 01:35:34;;;;;;;4.55;2.40;;;;;;;19.20;64.67;99352.78;5070907;28;20244;-61
2023/05/17 01:38:02;;;;;;;4.22;2.75;;;;;;;19.20;64.97;99358.19;5070738;28;20047;-60
2023/05/17 01:40:35;;;;;;;4.22;2.50;;;;;;;19.19;65.03;99348.41;5070802;28;20501;-61
2023/05/17 01:43:10;;;;;;;4.30;2.67;;;;;;;19.18;65.01;99361.09;5070982;28;20444;-61
2023/05/17 01:45:44;;;;;;;4.78;2.45;;;;;;;19.17;64.79;99356.69;5070797;28;20125;-61
2023/05/17 01:48:20;;;;;;;3.83;2.50;;;;;;;19.16;64.85;99346.91;5070629;28;20045;-62
2023/05/17 01:50:50;;;;;;;4.65;2.70;;;;;;;19.16;64.87;99341.50;5071024;28;20195;-61
2023/05/17 01:53:25;;;;;;;3.80;2.20;;;;;;;19.15;65.02;99340.66;5070681;28;20599;-62
2023/05/17 01:56:03;;;;;;;4.13;2.50;;;;;;;19.15;65.10;99334.41;5070837;28;20094;-63
2023/05/17 01:58:47;;;;;;;4.00;2.33;;;;;;;19.15;64.50;99342.50;5070617;28;20092;-61
2023/05/17 02:01:20;;;;;;;3.90;2.53;;;;;;;19.13;64.66;99339.13;5070744;28;20091;-62
2023/05/17 02:03:49;;;;;;;4.25;2.25;;;;;;;19.13;64.91;99341.84;5070740;28;20172;-60
2023/05/17 02:06:20;;;;;;;5.00;2.60;;;;;;;19.12;64.85;99341.00;5070783;28;20401;-63
2023/05/17 02:08:48;;;;;;;3.85;2.30;;;;;;;19.13;64.99;99355.34;5070547;28;20519;-62
2023/05/17 02:11:19;;;;;;;4.05;2.35;;;;;;;19.12;64.99;99359.06;5070349;28;20494;-61
2023/05/17 02:13:48;;;;;;;4.13;2.58;;;;;;;19.11;64.69;99355.53;5070422;28;20048;-62
2023/05/17 02:16:17;;;;;;;4.65;2.50;;;;;;;19.11;64.96;99354.69;5070989;28;20249;-61
2023/05/17 02:18:45;;;;;;;4.53;2.38;;;;;;;19.10;64.69;99351.09;5070275;28;20143;-62
2023/05/17 02:21:18;;;;;;;4.00;2.28;;;;;;;19.09;64.72;99352.13;5072835;28;20432;-62
2023/05/17 02:23:46;;;;;;;3.47;2.35;;;;;;;19.10;65.12;99352.97;5073945;28;20127;-63
2023/05/17 02:26:14;;;;;;;4.32;2.70;;;;;;;19.08;64.92;99355.84;5073893;28;20781;-62
2023/05/17 02:28:42;;;;;;;5.10;2.60;;;;;;;19.08;64.72;99361.25;5074105;28;20402;-62
2023/05/17 02:31:12;;;;;;;4.15;2.55;;;;;;;19.08;64.86;99363.94;5074000;28;20051;-62
2023/05/17 02:33:40;;;;;;;4.18;2.40;;;;;;;19.09;64.98;99370.19;5073777;28;20490;-62
2023/05/17 02:36:10;;;;;;;3.95;2.38;;;;;;;19.08;64.79;99387.44;5072599;28;20050;-62
2023/05/17 02:38:38;;;;;;;4.47;2.95;;;;;;;19.07;65.09;99383.03;5073695;28;20040;-61
2023/05/17 02:41:06;;;;;;;3.75;2.30;;;;;;;19.06;64.81;99395.72;5073547;28;20041;-62
2023/05/17 02:43:35;;;;;;;4.22;2.20;;;;;;;19.07;65.13;99401.97;5073794;28;20045;-62
2023/05/17 02:46:09;;;;;;;3.30;2.38;;;;;;;19.06;65.20;99389.47;5073636;28;20037;-61
2023/05/17 02:48:41;;;;;;;4.38;2.40;;;;;;;19.06;65.07;99397.56;5073645;28;20127;-62
2023/05/17 02:51:09;;;;;;;3.33;2.30;;;;;;;19.05;64.91;99398.59;5073395;28;20106;-61
2023/05/17 02:53:38;;;;;;;4.55;2.60;;;;;;;19.04;65.20;99399.59;5073720;28;20045;-61
2023/05/17 02:56:07;;;;;;;4.38;2.50;;;;;;;19.03;65.15;99390.66;5073539;28;20410;-62
2023/05/17 02:58:36;;;;;;;5.50;2.58;;;;;;;19.04;64.68;99391.50;5073466;28;20071;-61
2023/05/17 03:01:04;;;;;;;4.05;2.38;;;;;;;19.03;64.86;99389.81;5072948;28;20083;-61
2023/05/17 03:03:32;;;;;;;4.72;2.55;;;;;;;19.02;65.11;99388.97;5073195;28;20383;-61
2023/05/17 03:06:03;;;;;;;3.80;2.47;;;;;;;19.02;64.83;99394.38;5072247;28;20052;-61
2023/05/17 03:08:31;;;;;;;3.75;2.35;;;;;;;19.02;64.92;99393.53;5073344;28;20048;-61
2023/05/17 03:11:00;;;;;;;3.75;2.45;;;;;;;19.01;65.07;99395.38;5073393;28;20052;-61
2023/05/17 03:13:29;;;;;;;3.22;2.20;;;;;;;19.01;65.01;99387.28;5073120;28;20064;-61
2023/05/17 03:15:57;;;;;;;4.15;2.45;;;;;;;19.00;65.09;99399.06;5073098;28;20048;-61
2023/05/17 03:18:25;;;;;;;4.03;2.70;;;;;;;19.01;64.72;99405.31;5071728;28;20457;-61
2023/05/17 03:20:54;;;;;;;4.85;2.60;;;;;;;19.00;64.73;99403.63;5072832;28;20047;-62
2023/05/17 03:23:23;;;;;;;3.63;2.22;;;;;;;18.99;65.15;99410.91;5072971;28;20045;-61
2023/05/17 03:25:51;;;;;;;4.05;2.60;;;;;;;19.00;65.08;99406.34;5072973;28;20087;-61
2023/05/17 03:28:20;;;;;;;4.10;2.20;;;;;;;19.00;64.93;99406.34;5071530;28;20040;-61
2023/05/17 03:30:48;;;;;;;3.22;2.15;;;;;;;18.98;65.05;99398.41;5072748;28;20053;-61
2023/05/17 03:33:16;;;;;;;4.47;2.40;;;;;;;18.98;65.02;99403.81;5071472;28;20580;-62
2023/05/17 03:35:45;;;;;;;4.50;2.30;;;;;;;18.98;65.11;99406.50;5072863;28;20122;-62
2023/05/17 03:38:17;;;;;;;3.95;2.33;;;;;;;18.99;65.07;99410.06;5071482;28;20113;-62
2023/05/17 03:40:46;;;;;;;4.07;2.47;;;;;;;18.98;65.13;99403.81;5072699;28;20129;-62
2023/05/17 03:43:16;;;;;;;4.50;2.40;;;;;;;18.97;64.83;99402.13;5072394;28;20507;-61
2023/05/17 03:45:44;;;;;;;4.28;2.53;;;;;;;18.97;65.17;99417.50;5072706;28;20123;-62
2023/05/17 03:48:12;;;;;;;3.95;2.33;;;;;;;18.98;65.18;99429.97;5072248;28;20048;-62
2023/05/17 03:50:44;;;;;;;4.07;2.60;;;;;;;18.96;65.10;99430.16;5072379;28;20084;-62
2023/05/17 03:53:13;;;;;;;3.75;2.35;;;;;;;18.96;65.14;99437.41;5072325;28;20075;-61
2023/05/17 03:55:41;;;;;;;4.63;2.47;;;;;;;18.96;64.91;99440.13;5072482;28;20510;-62
2023/05/17 03:58:10;;;;;;;4.10;2.35;;;;;;;18.96;64.78;99450.94;5072248;28;20122;-61
2023/05/17 04:00:38;;;;;;;4.38;2.47;;;;;;;18.95;64.78;99452.78;5072340;28;20374;-61
2023/05/17 04:03:07;;;;;;;4.45;2.60;;;;;;;18.94;64.91;99448.41;5072227;28;20052;-60
2023/05/17 04:05:35;;;;;;;5.03;2.42;;;;;;;18.95;65.15;99452.78;5072132;28;20055;-61
2023/05/17 04:08:05;;;;;;;4.40;2.72;;;;;;;18.95;65.17;99451.94;5072084;28;20395;-60
2023/05/17 04:10:33;;;;;;;4.13;2.58;;;;;;;18.95;64.81;99443.84;5071394;28;20415;-60
2023/05/17 04:13:01;;;;;;;4.30;2.60;;;;;;;18.94;64.93;99443.00;5070933;28;20143;-60
2023/05/17 04:15:31;;;;;;;4.05;2.67;;;;;;;18.94;65.10;99450.25;5070626;28;20442;-63
2023/05/17 04:17:59;;;;;;;4.85;2.58;;;;;;;18.94;65.22;99455.66;5072755;28;20045;-63
2023/05/17 04:20:28;;;;;;;4.45;2.63;;;;;;;18.94;64.90;99450.25;5071788;28;20040;-61
2023/05/17 04:22:57;;;;;;;4.25;2.42;;;;;;;18.94;64.75;99458.38;5071617;28;20440;-67
2023/05/17 04:25:27;;;;;;;4.47;2.60;;;;;;;18.93;64.88;99460.22;5071847;28;20441;-61
2023/05/17 04:27:55;;;;;;;4.82;2.60;;;;;;;18.93;64.99;99460.22;5071727;28;20052;-61
2023/05/17 04:30:26;;;;;;;4.07;2.33;;;;;;;18.94;64.79;99471.88;5071623;28;20580;-61
2023/05/17 04:32:56;;;;;;;4.28;2.60;;;;;;;18.94;64.99;99463.75;5071492;28;20413;-61
2023/05/17 04:35:24;;;;;;;4.22;2.50;;;;;;;18.93;65.07;99468.31;5071238;28;20060;-61
2023/05/17 04:37:53;;;;;;;3.97;2.40;;;;;;;18.93;64.93;99472.88;5071283;28;20052;-61
2023/05/17 04:40:21;;;;;;;3.53;2.28;;;;;;;18.94;64.83;99488.09;5071284;28;20098;-61
2023/05/17 04:42:49;;;;;;;5.43;2.72;;;;;;;18.93;64.96;99492.66;5071077;28;20049;-62
2023/05/17 04:45:17;;;;;;;4.63;2.50;;;;;;;18.93;65.21;99497.22;5071171;28;20485;-61
2023/05/17 04:47:46;;;;;;;4.25;2.58;;;;;;;18.94;65.12;99509.72;5071111;28;20513;-61
2023/05/17 04:50:16;;;;;;;4.20;2.42;;;;;;;18.93;64.92;99511.56;5071118;28;20051;-61
2023/05/17 04:52:44;;;;;;;4.43;2.65;;;;;;;18.94;64.88;99520.50;5071119;28;20041;-60
2023/05/17 04:55:12;;;;;;;4.10;2.38;;;;;;;18.94;65.29;99520.50;5071509;28;20437;-61
2023/05/17 04:57:40;;;;;;;4.15;2.30;;;;;;;18.94;65.15;99515.09;5071173;28;20102;-61
2023/05/17 05:00:14;;;;;;;4.20;2.53;;;;;;;18.94;65.06;99515.09;5071015;28;20044;-61
2023/05/17 05:02:42;;;;;;;5.25;3.03;;;;;;;18.94;65.23;99509.72;5070983;28;20135;-61
2023/05/17 05:05:10;;;;;;;4.38;2.55;;;;;;;18.93;65.25;99513.41;5070477;28;20044;-61
2023/05/17 05:07:40;;;;;;;3.45;2.30;;;;;;;18.94;65.17;99512.41;5070403;28;20707;-63
2023/05/17 05:10:09;;;;;;;3.75;2.20;;;;;;;18.94;64.88;99523.22;5071182;28;20059;-62
2023/05/17 05:12:38;;;;;;;4.28;2.60;;;;;;;18.94;64.97;99524.06;5070762;28;20119;-61
2023/05/17 05:15:07;;;;;;;4.13;2.78;;;;;;;18.94;65.04;99526.75;5071059;28;20084;-62
2023/05/17 05:17:35;;;;;;;4.55;2.75;;;;;;;18.94;65.05;99525.91;5070876;28;20056;-61
2023/05/17 05:20:04;;;;;;;3.50;2.30;;;;;;;18.95;64.79;99524.91;5071117;28;20044;-61
2023/05/17 05:22:32;;;;;;;4.10;2.20;;;;;;;18.94;65.00;99520.50;5070893;28;20405;-62
2023/05/17 05:25:02;;;;;;;5.18;2.58;;;;;;;18.94;65.07;99521.34;5070818;28;20446;-61
2023/05/17 05:27:30;;;;;;;4.60;2.72;;;;;;;18.95;65.15;99519.50;5070643;28;20056;-62
2023/05/17 05:29:58;;;;;;;4.82;2.53;;;;;;;18.95;65.23;99525.75;5070689;28;20071;-61
2023/05/17 05:32:26;;;;;;;5.15;2.80;;;;;;;18.95;65.18;99525.75;5070991;28;20144;-61
2023/05/17 05:34:55;;;;;;;4.00;2.60;;;;;;;18.95;64.93;99528.44;5071487;28;20048;-60
2023/05/17 05:37:24;;;;;;;4.45;2.78;;;;;;;18.96;64.86;99523.88;5070251;28;20123;-62
2023/05/17 05:39:52;;;;;;;4.47;2.60;;;;;;;18.97;65.41;99528.28;5070292;28;20036;-61
2023/05/17 05:42:22;;;;;;;4.78;2.60;;;;;;;18.97;65.33;99539.09;5069943;28;20135;-62
2023/05/17 05:44:50;;;;;;;4.43;2.58;;;;;;;18.98;65.03;99551.59;5070147;28;20136;-62
2023/05/17 05:47:21;;;;;;;4.65;2.65;;;;;;;18.97;65.12;99539.09;5069594;28;20109;-61
2023/05/17 05:49:49;;;;;;;5.38;2.97;;;;;;;18.98;65.18;99547.03;5104589;28;20138;-60
2023/05/17 05:52:17;;;;;;;3.83;2.50;;;;;;;18.98;65.48;99543.47;5070241;28;20509;-61
2023/05/17 05:54:45;;;;;;;4.45;2.60;;;;;;;18.99;65.50;99545.19;5073181;28;20048;-61
2023/05/17 05:57:13;;;;;;;5.65;3.10;;;;;;;18.99;65.34;99547.88;5074156;28;20049;-61
2023/05/17 05:59:43;;;;;;;4.00;2.50;;;;;;;18.99;65.56;99547.88;5074491;28;20041;-60
2023/05/17 06:02:11;;;;;;;5.63;2.53;;;;;;;19.00;65.32;99544.16;5074227;28;20097;-63
2023/05/17 06:04:39;;;;;;;5.30;3.13;;;;;;;19.00;65.64;99542.31;5074297;28;20089;-62
2023/05/17 06:07:12;;;;;;;;;;;;;;;19.00;65.76;99547.72;5074442;28;20040;-62
2023/05/17 06:09:41;;;;;;;3.85;2.60;;;;;;;19.00;65.64;99542.31;5074196;28;20358;-62
2023/05/17 06:12:09;;;;;;;5.65;2.90;;;;;;;19.01;65.52;99548.56;5073908;28;20044;-61
2023/05/17 06:14:40;;;;;;;4.78;2.78;;;;;;;19.01;65.94;99548.56;5072588;28;20063;-62
2023/05/17 06:17:10;;;;;;;5.03;2.95;;;;;;;19.02;65.60;99550.28;5074029;28;20040;-61
2023/05/17 06:19:39;;;;;;;4.95;2.92;;;;;;;19.02;65.79;99555.69;5073569;28;20098;-62
2023/05/17 06:22:07;;;;;;;4.35;2.88;;;;;;;19.01;66.02;99560.25;5073551;28;20072;-62
2023/05/17 06:24:36;;;;;;;5.07;2.90;;;;;;;19.02;65.79;99561.09;5073704;28;20080;-61
2023/05/17 06:27:05;;;;;;;4.38;2.75;;;;;;;19.03;65.76;99562.78;5073449;28;20040;-62
2023/05/17 06:29:36;;;;;;;4.75;2.83;;;;;;;19.03;66.00;99565.47;5073608;28;20045;-61
2023/05/17 06:32:05;;;;;;;5.55;2.60;;;;;;;19.03;65.70;99568.19;5071074;28;20071;-62
2023/05/17 06:34:35;;;;;;;4.53;2.78;;;;;;;19.04;65.61;99567.16;5073686;28;20048;-60
2023/05/17 06:37:05;;;;;;;5.40;3.22;;;;;;;19.02;65.77;99572.75;5073700;28;20059;-60
2023/05/17 06:39:34;;;;;;;6.13;3.03;;;;;;;19.04;65.96;99564.47;5073922;28;20076;-60
2023/05/17 06:42:02;;;;;;;7.55;2.85;;;;;;;19.05;66.63;99558.88;5071971;28;20036;-59
2023/05/17 06:44:33;;;;;;;9.38;3.20;;;;;;;19.07;67.21;99564.97;5073598;28;20057;-61
2023/05/17 06:47:01;;;;;;;9.05;2.80;;;;;;;19.09;66.99;99573.75;5073191;28;20395;-61
2023/05/17 06:49:32;;;;;;;7.90;3.22;;;;;;;19.11;68.00;99579.03;5072033;28;20052;-62
2023/05/17 06:52:04;;;;;;;7.25;3.17;;;;;;;19.13;68.53;99574.31;5073113;28;20402;-62
2023/05/17 06:54:35;;;;;;;7.15;3.45;;;;;;;19.15;69.21;99572.28;5072334;28;20053;-62
2023/05/17 06:57:03;;;;;;;5.90;3.20;;;;;;;19.16;69.51;99584.78;5073507;28;20139;-62
2023/05/17 06:59:32;;;;;;;11.30;3.42;;;;;;;19.18;70.19;99598.97;5073553;28;20094;-63
2023/05/17 07:02:00;;;;;;;7.57;3.17;;;;;;;19.18;70.08;99598.97;5073321;28;20058;-62
2023/05/17 07:04:28;;;;;;;9.13;3.63;;;;;;;19.19;70.41;99592.53;5072782;28;20131;-63
2023/05/17 07:06:59;;;;;;;11.02;3.80;;;;;;;19.20;70.20;99596.94;5073284;28;20040;-62
2023/05/17 07:09:28;;;;;;;10.50;3.30;;;;;;;19.22;70.28;99597.66;5073176;28;20127;-63
2023/05/17 07:12:00;;;;;;;10.20;3.40;;;;;;;19.22;70.31;99605.75;5073130;28;20058;-61
2023/05/17 07:14:28;;;;;;;7.20;3.30;;;;;;;19.23;70.22;99612.00;5073145;28;20126;-61
2023/05/17 07:16:56;;;;;;;9.70;3.40;;;;;;;19.23;70.29;99618.25;5072017;28;20040;-62
2023/05/17 07:19:25;;;;;;;6.03;3.42;;;;;;;19.24;70.42;99613.69;5073195;28;20099;-60
2023/05/17 07:21:54;;;;;;;7.45;3.45;;;;;;;19.25;70.36;99610.00;5072976;28;20080;-61
2023/05/17 07:24:23;;;;;;;6.53;3.50;;;;;;;19.25;70.33;99610.84;5072814;28;20094;-61
2023/05/17 07:26:52;;;;;;;5.90;3.50;;;;;;;19.26;70.40;99614.38;5072841;28;20048;-61
2023/05/17 07:29:20;;;;;;;7.55;3.60;;;;;;;19.26;70.11;99604.41;5072722;28;20044;-61
2023/05/17 07:31:51;;;;;;;7.85;3.60;;;;;;;19.26;70.18;99612.53;5072764;28;20045;-61
2023/05/17 07:34:19;;;;;;;6.53;3.60;;;;;;;19.28;70.29;99620.47;5072887;28;20097;-62
2023/05/17 07:36:47;;;;;;;6.50;3.28;;;;;;;19.27;70.46;99622.31;5072467;28;20489;-62
2023/05/17 07:39:16;;;;;;;6.35;3.40;;;;;;;19.27;70.29;99619.63;5072382;28;20542;-60
2023/05/17 07:41:44;;;;;;;8.38;3.72;;;;;;;19.28;70.02;99615.06;5072409;28;20052;-63
2023/05/17 07:44:17;;;;;;;8.73;3.53;;;;;;;19.28;69.93;99615.91;5072341;28;20588;-60
2023/05/17 07:46:45;;;;;;;9.85;3.85;;;;;;;19.29;69.75;99617.59;5071370;28;20133;-61
2023/05/17 07:49:13;;;;;;;5.93;3.40;;;;;;;19.29;69.71;99616.75;5070782;28;20074;-61
2023/05/17 07:51:45;;;;;;;8.20;3.65;;;;;;;19.29;70.02;99617.59;5072348;28;20456;-61
2023/05/17 07:54:23;;;;;;;7.80;4.10;;;;;;;19.30;69.79;99619.31;5072233;28;20494;-61
2023/05/17 07:56:59;;;;;;;6.50;3.38;;;;;;;19.30;70.15;99627.44;5072390;28;20044;-61
2023/05/17 07:59:28;;;;;;;9.60;4.05;;;;;;;19.30;70.30;99619.31;5072341;28;20071;-61
2023/05/17 08:01:56;;;;;;;9.05;4.03;;;;;;;19.31;69.79;99620.16;5072353;28;20056;-61
2023/05/17 08:04:25;;;;;;;10.65;4.43;;;;;;;19.32;70.18;99621.84;5071989;28;20144;-61
2023/05/17 08:06:54;;;;;;;9.63;4.43;;;;;;;19.32;69.82;99621.84;5072151;28;20433;-61
2023/05/17 08:09:22;;;;;;;10.70;4.28;;;;;;;19.31;69.87;99626.41;5072178;28;20052;-61
2023/05/17 08:11:50;;;;;;;11.40;3.45;;;;;;;19.32;70.39;99638.91;5071899;28;20167;-61
2023/05/17 08:14:21;;;;;;;12.95;4.00;;;;;;;19.32;69.92;99633.50;5071815;28;20109;-61
2023/05/17 08:16:51;;;;;;;9.82;3.97;;;;;;;19.33;70.28;99646.00;5071114;28;20409;-61
2023/05/17 08:19:26;;;;;;;9.85;4.30;;;;;;;19.33;69.75;99646.00;5071769;28;20139;-61
2023/05/17 08:21:55;;;;;;;9.18;3.92;;;;;;;19.33;69.87;99646.00;5071660;28;20486;-61
2023/05/17 08:24:23;;;;;;;10.90;4.32;;;;;;;19.34;70.02;99650.41;5071518;28;20486;-61
2023/05/17 08:26:51;;;;;;;9.85;4.55;;;;;;;19.33;70.19;99646.00;5071805;28;20049;-61
2023/05/17 08:29:19;;;;;;;10.40;4.13;;;;;;;19.34;70.14;99646.88;5071826;28;20337;-61
2023/05/17 08:31:47;;;;;;;7.50;3.70;;;;;;;19.35;70.00;99640.44;5070223;28;20047;-61
2023/05/17 08:34:17;;;;;;;8.02;3.70;;;;;;;19.34;69.99;99647.72;5071232;28;20473;-61
2023/05/17 08:36:45;;;;;;;8.18;3.85;;;;;;;19.36;69.94;99650.25;5071219;28;20073;-61
2023/05/17 08:39:13;;;;;;;8.60;3.85;;;;;;;19.37;69.76;99649.22;5071589;28;20045;-61
2023/05/17 08:41:41;;;;;;;9.35;3.70;;;;;;;19.37;69.66;99650.06;5071522;28;20059;-61
2023/05/17 08:44:10;;;;;;;6.28;3.67;;;;;;;19.37;70.15;99652.78;5071036;28;20497;-61
2023/05/17 08:46:40;;;;;;;9.75;3.92;;;;;;;19.38;69.86;99654.47;5071380;28;20051;-61
2023/05/17 08:49:11;;;;;;;8.05;4.30;;;;;;;19.38;70.28;99654.47;5071390;28;20101;-61
2023/05/17 08:51:42;;;;;;;7.88;3.97;;;;;;;19.38;70.10;99654.47;5071570;28;20049;-61
2023/05/17 08:54:10;;;;;;;10.00;3.67;;;;;;;19.40;69.70;99657.03;5071453;28;20048;-61
2023/05/17 08:56:42;;;;;;;10.10;3.80;;;;;;;19.40;69.96;99651.63;5070050;28;20101;-62
2023/05/17 08:59:12;;;;;;;7.05;3.60;;;;;;;19.40;70.12;99651.63;5071266;28;20135;-62
2023/05/17 09:01:43;;;;;;;6.57;3.80;;;;;;;19.40;70.19;99647.06;5071396;28;20132;-62
2023/05/17 09:04:12;;;;;;;7.28;3.35;;;;;;;19.40;70.26;99644.38;5071266;28;20052;-62
2023/05/17 09:06:43;;;;;;;8.77;4.00;;;;;;;19.41;69.99;99651.47;5071258;28;20127;-62
2023/05/17 09:09:11;;;;;;;5.63;3.67;;;;;;;19.40;69.77;99644.38;5071173;28;20101;-62
2023/05/17 09:11:40;;;;;;;7.70;3.50;;;;;;;19.41;69.77;99646.06;5071046;28;20801;-61
2023/05/17 09:14:08;;;;;;;6.45;3.60;;;;;;;19.42;69.99;99647.75;5071172;28;20497;-61
2023/05/17 09:16:37;;;;;;;6.85;3.80;;;;;;;19.43;69.94;99652.13;5071361;28;20647;-61
2023/05/17 09:19:08;;;;;;;6.88;3.45;;;;;;;19.43;69.83;99641.31;5071237;28;20482;-61
2023/05/17 09:21:37;;;;;;;7.47;3.25;;;;;;;19.43;70.11;99646.72;5071287;28;20056;-61
2023/05/17 09:24:07;;;;;;;6.80;3.60;;;;;;;19.44;70.12;99637.59;5070997;28;20052;-61
2023/05/17 09:26:40;;;;;;;5.93;3.55;;;;;;;19.47;70.22;99649.09;5070155;28;20056;-61
2023/05/17 09:29:10;;;;;;;;;;;;;;;19.47;70.20;99651.81;5074991;28;20048;-61
2023/05/17 09:31:39;;;;;;;7.90;4.07;;;;;;;19.47;69.94;99651.81;5075067;28;19927;-61
2023/05/17 09:34:10;;;;;;;8.60;3.47;;;;;;;19.49;70.04;99660.59;5075087;28;20123;-61
2023/05/17 09:36:42;;;;;;;8.98;4.00;;;;;;;19.50;70.12;99657.75;5073751;28;20120;-61
2023/05/17 09:39:14;;;;;;;7.13;3.58;;;;;;;19.51;69.94;99656.75;5074947;28;20395;-61
2023/05/17 09:41:44;;;;;;;10.02;4.07;;;;;;;19.53;69.66;99659.28;5075143;28;20040;-60
2023/05/17 09:44:16;;;;;;;9.18;3.97;;;;;;;19.53;69.82;99657.41;5074844;28;20044;-61
2023/05/17 09:46:46;;;;;;;10.13;3.70;;;;;;;19.54;70.10;99666.38;5074817;28;20048;-61
2023/05/17 09:49:16;;;;;;;11.45;4.10;;;;;;;19.55;69.82;99670.78;5074627;28;20045;-60
2023/05/17 09:51:46;;;;;;;9.32;4.18;;;;;;;19.55;69.92;99676.19;5074668;28;20049;-61
2023/05/17 09:54:16;;;;;;;11.48;4.10;;;;;;;19.55;70.05;99676.19;5074630;28;20131;-64
2023/05/17 09:56:53;;;;;;;9.50;3.88;;;;;;;19.56;69.64;99677.91;5074783;28;20132;-60
2023/05/17 09:59:29;;;;;;;9.23;4.10;;;;;;;19.56;69.77;99678.75;5074441;28;20102;-61
2023/05/17 10:01:59;;;;;;;10.20;3.97;;;;;;;19.57;69.60;99674.19;5074566;28;20135;-62
2023/05/17 10:04:33;;;;;;;9.80;3.95;;;;;;;19.58;69.50;99682.13;5074418;28;20119;-62
2023/05/17 10:07:01;;;;;;;7.07;3.63;;;;;;;19.58;69.61;99682.13;5074515;28;20128;-62
2023/05/17 10:09:36;;;;;;;8.32;3.88;;;;;;;19.60;69.90;99679.28;5073209;28;20059;-62
2023/05/17 10:12:06;;;;;;;9.65;4.07;;;;;;;19.61;69.93;99680.97;5074214;28;20549;-63
2023/05/17 10:14:36;;;;;;;10.77;4.18;;;;;;;19.62;69.83;99682.66;5074479;28;20122;-62
2023/05/17 10:17:07;;;;;;;8.32;3.70;;;;;;;19.63;69.78;99687.91;5074502;28;20041;-62
2023/05/17 10:19:36;;;;;;;8.63;4.00;;;;;;;19.65;69.77;99690.44;5074183;28;20485;-63
2023/05/17 10:22:06;;;;;;;7.25;3.67;;;;;;;19.66;69.84;99689.44;5074281;28;20132;-62
2023/05/17 10:24:51;;;;;;;7.40;3.88;;;;;;;19.68;69.54;99688.25;5073975;28;20052;-62
2023/05/17 10:27:21;;;;;;;8.82;4.00;;;;;;;19.68;69.67;99682.00;5074286;28;20128;-63
2023/05/17 10:29:53;;;;;;;8.40;4.00;;;;;;;19.71;69.64;99687.09;5072752;28;20052;-63
2023/05/17 10:32:27;;;;;;;8.88;3.53;;;;;;;19.73;69.31;99676.94;5073963;28;20456;-62
2023/05/17 10:34:56;;;;;;;6.47;3.45;;;;;;;19.74;69.28;99681.34;5073853;28;20052;-61
2023/05/17 10:37:39;;;;;;;7.70;3.80;;;;;;;19.77;69.32;99681.00;5074224;28;20406;-62
2023/05/17 10:40:12;;;;;;;8.38;4.03;;;;;;;19.79;69.60;99688.97;5072869;28;20482;-63
2023/05/17 10:42:44;;;;;;;6.57;3.38;;;;;;;19.82;69.35;99694.06;5072866;28;20417;-62
2023/05/17 10:45:14;;;;;;;9.93;3.58;;;;;;;19.84;69.48;99687.47;5072369;28;20495;-63
2023/05/17 10:47:44;;;;;;;8.23;3.83;;;;;;;19.86;69.63;99690.00;5073800;28;20508;-62
2023/05/17 10:50:13;;;;;;;7.35;4.00;;;;;;;19.87;69.76;99692.53;5074060;28;20442;-63
2023/05/17 10:52:47;;;;;;;7.60;4.07;;;;;;;19.88;69.75;99696.97;5074107;28;20132;-62
2023/05/17 10:55:20;;;;;;;7.10;3.83;;;;;;;19.89;69.89;99693.25;5073544;28;20048;-62
2023/05/17 10:58:19;;;;;;;10.85;4.18;;;;;;;19.90;69.92;99696.78;5073793;28;20695;-63
2023/05/17 11:00:53;;;;;;;9.20;4.20;;;;;;;19.92;70.15;99706.44;5073774;28;20044;-63
2023/05/17 11:03:29;;;;;;;8.35;3.67;;;;;;;19.91;70.16;99701.19;5073607;28;20074;-62
2023/05/17 11:06:19;;;;;;;6.78;3.70;;;;;;;19.92;69.67;99697.47;5073377;28;20474;-63
2023/05/17 11:09:07;;;;;;;6.95;3.80;;;;;;;19.94;70.04;99709.81;5073376;28;20052;-60
2023/05/17 11:12:04;;;;;;;8.07;3.90;;;;;;;19.95;69.67;99711.50;5073274;28;20054;-63
2023/05/17 11:14:46;;;;;;;;;;;;;;;19.96;69.88;99707.78;5073765;28;20040;-63
2023/05/17 11:17:16;;;;;;;6.55;3.60;;;;;;;19.98;69.80;99711.19;5073179;28;19920;-62
2023/05/17 11:20:09;;;;;;;7.63;3.72;;;;;;;20.01;69.54;99708.16;5073250;28;20047;-63
2023/05/17 11:22:50;;;;;;;7.45;3.78;;;;;;;20.02;69.41;99712.53;5073110;28;20051;-63
2023/05/17 11:25:19;;;;;;;6.25;3.33;;;;;;;20.05;69.56;99719.47;5072824;28;20052;-63
2023/05/17 11:27:52;;;;;;;8.85;3.63;;;;;;;20.06;69.74;99721.16;5072869;28;20098;-63
2023/05/17 11:30:23;;;;;;;6.13;3.45;;;;;;;20.09;69.75;99728.13;5073245;28;20079;-63
2023/05/17 11:32:53;;;;;;;8.57;3.72;;;;;;;20.10;69.37;99736.09;5073160;28;20241;-63
2023/05/17 11:35:26;;;;;;;7.95;3.63;;;;;;;20.12;69.31;99738.63;5072990;28;20413;-63
2023/05/17 11:38:12;;;;;;;5.65;3.38;;;;;;;20.13;69.26;99734.91;5072827;28;20044;-62
2023/05/17 11:40:43;;;;;;;6.10;3.17;;;;;;;20.16;69.25;99740.81;5072948;28;20076;-62
2023/05/17 11:43:14;;;;;;;6.18;2.92;;;;;;;20.16;69.29;99740.81;5072892;28;20074;-62
2023/05/17 11:45:46;;;;;;;6.05;3.40;;;;;;;20.19;69.66;99745.06;5072547;28;20041;-63
2023/05/17 11:48:16;;;;;;;5.40;2.97;;;;;;;20.18;69.54;99738.81;5072482;28;20369;-62